Time;durP1;ratioP1;P1;durP2;ratioP2;P2;SDS_P1;SDS_P2;PMS_P1;PMS_P2;Temp;Humidity;BMP_temperature;BMP_pressure;BME280_temperature;BME280_humidity;BME280_pressure;Samples;Min_cycle;Max_cycle;Signal;HPM_P1;HPM_P2
2023/08/21 00:01:03;;;;;;;8.90;5.10;;;28.30;79.00;;;;;;5013096;28;20206;-71
2023/08/21 00:03:29;;;;;;;6.13;4.90;;;28.30;79.00;;;;;;5009192;28;20564;-70
2023/08/21 00:05:56;;;;;;;5.40;5.00;;;28.20;78.90;;;;;;5013605;28;20275;-71
2023/08/21 00:08:23;;;;;;;5.40;4.90;;;28.20;79.10;;;;;;5012902;28;20229;-71
2023/08/21 00:10:51;;;;;;;7.00;4.80;;;28.20;79.10;;;;;;5013669;28;20202;-71
2023/08/21 00:13:18;;;;;;;8.33;5.27;;;28.20;79.10;;;;;;5013102;28;20241;-70
2023/08/21 00:15:45;;;;;;;5.97;5.47;;;28.20;79.20;;;;;;5012546;28;20297;-72
2023/08/21 00:18:12;;;;;;;6.57;4.80;;;28.10;79.40;;;;;;5013559;28;20601;-72
2023/08/21 00:20:41;;;;;;;6.10;5.50;;;28.10;79.40;;;;;;5013115;28;20218;-72
2023/08/21 00:23:08;;;;;;;6.00;5.17;;;28.10;79.40;;;;;;5013275;28;20212;-71
2023/08/21 00:25:35;;;;;;;6.93;5.80;;;28.10;79.40;;;;;;5013121;28;20213;-72
2023/08/21 00:28:04;;;;;;;6.00;5.37;;;28.10;79.40;;;;;;5012989;28;20206;-72
2023/08/21 00:30:31;;;;;;;5.27;4.80;;;28.10;79.60;;;;;;5012407;28;20297;-72
2023/08/21 00:32:57;;;;;;;5.63;5.13;;;28.10;79.70;;;;;;5012967;28;20432;-72
2023/08/21 00:35:24;;;;;;;6.57;5.37;;;28.10;79.80;;;;;;5013183;28;20202;-72
2023/08/21 00:37:51;;;;;;;5.60;5.10;;;28.10;79.80;;;;;;5012989;28;20245;-71
2023/08/21 00:40:18;;;;;;;6.00;5.43;;;28.10;80.00;;;;;;5012753;28;20226;-71
2023/08/21 00:42:45;;;;;;;9.30;5.30;;;28.00;79.90;;;;;;5012610;28;20206;-71
2023/08/21 00:45:13;;;;;;;6.13;5.30;;;28.00;80.00;;;;;;5011498;28;20299;-71
2023/08/21 00:47:40;;;;;;;5.60;5.03;;;27.90;80.00;;;;;;5012850;28;20217;-72
2023/08/21 00:50:08;;;;;;;5.77;5.17;;;27.90;80.00;;;;;;5012396;28;20700;-71
2023/08/21 00:52:37;;;;;;;5.97;4.87;;;27.90;80.00;;;;;;5012027;28;20211;-71
2023/08/21 00:55:04;;;;;;;6.23;5.00;;;27.90;80.00;;;;;;5012555;28;20207;-71
2023/08/21 00:57:32;;;;;;;5.47;4.97;;;27.80;79.80;;;;;;5012491;28;20780;-72
2023/08/21 01:00:00;;;;;;;10.70;5.80;;;27.90;80.00;;;;;;5012295;28;20217;-72
2023/08/21 01:02:28;;;;;;;4.77;4.37;;;27.90;80.10;;;;;;5012648;28;20237;-71
2023/08/21 01:04:55;;;;;;;5.97;5.37;;;27.80;80.40;;;;;;5012237;28;20206;-72
2023/08/21 01:07:24;;;;;;;5.70;5.20;;;27.80;80.50;;;;;;5012101;28;20218;-72
2023/08/21 01:09:57;;;;;;;6.20;5.40;;;27.70;80.40;;;;;;5012464;28;20617;-71
2023/08/21 01:12:29;;;;;;;6.20;5.30;;;27.70;80.50;;;;;;5012501;28;20200;-71
2023/08/21 01:15:01;;;;;;;5.73;5.23;;;27.70;80.40;;;;;;5011608;28;20233;-72
2023/08/21 01:17:30;;;;;;;6.23;5.63;;;27.70;80.50;;;;;;5012102;28;20228;-71
2023/08/21 01:19:58;;;;;;;7.27;5.53;;;27.60;80.50;;;;;;5011168;28;20595;-71
2023/08/21 01:22:27;;;;;;;6.03;5.53;;;27.60;80.80;;;;;;5012496;28;20200;-71
2023/08/21 01:24:55;;;;;;;6.03;5.53;;;27.60;81.10;;;;;;5011860;28;20205;-72
2023/08/21 01:27:22;;;;;;;6.70;6.00;;;27.60;81.20;;;;;;5010451;28;20233;-72
2023/08/21 01:29:50;;;;;;;5.87;5.20;;;27.50;81.20;;;;;;5012257;28;20292;-71
2023/08/21 01:32:23;;;;;;;6.17;5.57;;;27.40;81.40;;;;;;5008484;28;20229;-71
2023/08/21 01:34:52;;;;;;;7.57;5.93;;;27.40;81.60;;;;;;4992727;28;20194;-71
2023/08/21 01:37:19;;;;;;;6.20;5.50;;;27.40;81.50;;;;;;4992560;28;20628;-71
2023/08/21 01:39:46;;;;;;;6.00;5.40;;;27.40;81.50;;;;;;4992717;28;20582;-71
2023/08/21 01:42:14;;;;;;;6.33;5.50;;;27.40;81.50;;;;;;4992161;28;20217;-71
2023/08/21 01:44:41;;;;;;;5.67;5.17;;;27.40;81.60;;;;;;5006244;28;20584;-72
2023/08/21 01:47:08;;;;;;;6.03;5.20;;;27.40;81.50;;;;;;4992217;28;20204;-71
2023/08/21 01:49:35;;;;;;;4.97;4.57;;;27.40;81.40;;;;;;4992374;28;20219;-71
2023/08/21 01:52:02;;;;;;;4.87;4.43;;;27.40;81.10;;;;;;4992263;28;20205;-71
2023/08/21 01:54:29;;;;;;;6.73;5.10;;;27.30;81.00;;;;;;4992309;28;20340;-71
2023/08/21 01:56:56;;;;;;;5.60;5.10;;;27.30;81.00;;;;;;4991846;28;20256;-71
2023/08/21 01:59:25;;;;;;;5.97;4.97;;;27.20;81.10;;;;;;4992051;28;20677;-71
2023/08/21 02:01:52;;;;;;;6.50;5.40;;;27.20;81.60;;;;;;4992244;28;20225;-72
2023/08/21 02:04:19;;;;;;;5.50;5.03;;;27.20;81.80;;;;;;5011212;28;20374;-71
2023/08/21 02:06:45;;;;;;;7.10;5.63;;;27.20;81.70;;;;;;5011835;28;20204;-71
2023/08/21 02:09:12;;;;;;;5.87;5.27;;;27.20;81.70;;;;;;5011284;28;20247;-71
2023/08/21 02:11:39;;;;;;;6.93;5.20;;;27.20;81.70;;;;;;5011733;28;20222;-71
2023/08/21 02:14:06;;;;;;;5.57;5.07;;;27.10;81.70;;;;;;5010942;28;20655;-72
2023/08/21 02:16:34;;;;;;;5.33;4.83;;;27.10;82.50;;;;;;5011322;28;20246;-72
2023/08/21 02:19:01;;;;;;;5.00;4.50;;;27.10;81.80;;;;;;5011633;28;20209;-71
2023/08/21 02:21:28;;;;;;;5.50;5.00;;;27.10;81.80;;;;;;5011127;28;20250;-71
2023/08/21 02:23:55;;;;;;;5.43;4.97;;;27.20;81.90;;;;;;5010716;28;20206;-71
2023/08/21 02:26:21;;;;;;;5.63;5.10;;;27.10;81.90;;;;;;5011402;28;20622;-70
2023/08/21 02:28:48;;;;;;;5.47;4.97;;;27.10;82.10;;;;;;5011404;28;20200;-71
2023/08/21 02:31:15;;;;;;;6.90;5.73;;;27.00;82.80;;;;;;5010966;28;20195;-71
2023/08/21 02:33:43;;;;;;;6.20;5.67;;;27.00;82.10;;;;;;5010580;28;20737;-71
2023/08/21 02:36:10;;;;;;;6.17;5.30;;;26.90;82.20;;;;;;5011126;28;20207;-71
2023/08/21 02:38:37;;;;;;;6.00;5.43;;;26.90;82.30;;;;;;5013357;28;20687;-71
2023/08/21 02:41:03;;;;;;;5.97;5.37;;;26.90;83.20;;;;;;5015087;28;20229;-71
2023/08/21 02:43:30;;;;;;;6.00;5.40;;;26.90;82.50;;;;;;5015063;28;20225;-71
2023/08/21 02:45:57;;;;;;;5.63;5.00;;;26.80;82.50;;;;;;5014286;28;20232;-71
2023/08/21 02:48:24;;;;;;;6.73;5.70;;;26.80;82.50;;;;;;5015209;28;20193;-71
2023/08/21 02:50:52;;;;;;;6.63;5.50;;;26.80;82.60;;;;;;5014733;28;20290;-71
2023/08/21 02:53:19;;;;;;;6.23;5.73;;;26.70;82.60;;;;;;5015035;28;20246;-71
2023/08/21 02:55:45;;;;;;;6.60;5.80;;;26.80;82.70;;;;;;5014678;28;20203;-71
2023/08/21 02:58:12;;;;;;;7.53;5.63;;;26.80;82.80;;;;;;5014303;28;20237;-71
2023/08/21 03:00:39;;;;;;;6.17;5.63;;;26.80;83.10;;;;;;5015141;28;20227;-71
2023/08/21 03:03:06;;;;;;;6.37;5.77;;;26.70;83.10;;;;;;5014445;28;20200;-71
2023/08/21 03:05:33;;;;;;;7.33;5.87;;;26.70;83.20;;;;;;5014166;28;20228;-71
2023/08/21 03:08:01;;;;;;;6.00;5.33;;;26.70;83.10;;;;;;5014140;28;20721;-71
2023/08/21 03:10:29;;;;;;;7.13;5.47;;;26.70;83.10;;;;;;5014390;28;20208;-71
2023/08/21 03:12:56;;;;;;;5.40;4.90;;;26.70;82.90;;;;;;5014745;28;20266;-71
2023/08/21 03:15:23;;;;;;;6.20;5.37;;;26.70;82.70;;;;;;5014064;28;20215;-71
2023/08/21 03:17:50;;;;;;;6.23;5.63;;;26.60;82.80;;;;;;5002439;28;20244;-71
2023/08/21 03:20:18;;;;;;;5.30;4.80;;;26.60;82.70;;;;;;5013111;28;20212;-71
2023/08/21 03:22:45;;;;;;;5.67;5.10;;;26.60;82.80;;;;;;5014382;28;20199;-71
2023/08/21 03:25:13;;;;;;;7.23;5.17;;;26.60;82.70;;;;;;5014327;28;20262;-71
2023/08/21 03:27:44;;;;;;;5.40;4.90;;;26.60;82.80;;;;;;5013806;28;20200;-71
2023/08/21 03:30:14;;;;;;;5.77;5.27;;;26.60;82.80;;;;;;5014599;28;20243;-71
2023/08/21 03:32:41;;;;;;;6.20;5.57;;;26.50;82.70;;;;;;5009364;28;20280;-71
2023/08/21 03:35:08;;;;;;;6.47;5.50;;;26.50;82.90;;;;;;4994739;28;20217;-71
2023/08/21 03:37:35;;;;;;;7.37;5.90;;;26.50;83.10;;;;;;4994601;28;20225;-71
2023/08/21 03:40:03;;;;;;;6.23;5.47;;;26.40;83.30;;;;;;4995464;28;20208;-71
2023/08/21 03:42:31;;;;;;;8.23;6.00;;;26.40;83.50;;;;;;4996277;28;20233;-71
2023/08/21 03:44:58;;;;;;;6.00;5.40;;;26.40;83.80;;;;;;5008188;28;20565;-71
2023/08/21 03:47:25;;;;;;;8.87;5.07;;;26.40;83.90;;;;;;5003923;28;20196;-71
2023/08/21 03:49:51;;;;;;;6.33;5.73;;;26.30;84.00;;;;;;5012846;28;20227;-71
2023/08/21 03:52:18;;;;;;;6.57;5.67;;;26.30;84.10;;;;;;5013886;28;20216;-71
2023/08/21 03:54:45;;;;;;;7.10;5.77;;;26.30;84.20;;;;;;4994902;28;20236;-71
2023/08/21 03:57:12;;;;;;;6.00;5.50;;;26.30;84.00;;;;;;4994227;28;20194;-71
2023/08/21 03:59:41;;;;;;;6.57;5.23;;;26.30;83.90;;;;;;4996766;28;20340;-71
2023/08/21 04:02:08;;;;;;;6.03;5.33;;;26.30;83.90;;;;;;5013489;28;20225;-71
2023/08/21 04:04:35;;;;;;;6.03;5.47;;;26.30;83.90;;;;;;5013763;28;20208;-71
2023/08/21 04:07:02;;;;;;;10.33;5.57;;;26.30;83.90;;;;;;5013064;28;20232;-71
2023/08/21 04:09:28;;;;;;;6.47;5.80;;;26.20;83.90;;;;;;5013321;28;20231;-71
2023/08/21 04:11:55;;;;;;;5.70;5.10;;;26.20;84.00;;;;;;5013492;28;20667;-71
2023/08/21 04:14:22;;;;;;;5.80;5.30;;;26.20;84.00;;;;;;5013587;28;20229;-71
2023/08/21 04:16:50;;;;;;;6.20;5.60;;;26.20;83.90;;;;;;5012296;28;20303;-70
2023/08/21 04:19:17;;;;;;;5.73;5.23;;;26.20;83.80;;;;;;5001954;28;20220;-71
2023/08/21 04:21:44;;;;;;;6.10;5.50;;;26.20;83.70;;;;;;5013424;28;20559;-71
2023/08/21 04:24:11;;;;;;;6.10;5.60;;;26.20;83.60;;;;;;5013272;28;20246;-72
2023/08/21 04:26:37;;;;;;;8.80;5.47;;;26.20;83.70;;;;;;5012877;28;20223;-72
2023/08/21 04:29:04;;;;;;;6.83;5.73;;;26.20;83.80;;;;;;5013512;28;20608;-72
2023/08/21 04:31:31;;;;;;;6.27;5.27;;;26.20;83.80;;;;;;5013448;28;20215;-72
2023/08/21 04:33:59;;;;;;;8.23;5.60;;;26.20;83.90;;;;;;5013171;28;20238;-72
2023/08/21 04:36:26;;;;;;;6.70;6.00;;;26.10;83.90;;;;;;5012475;28;20740;-72
2023/08/21 04:38:53;;;;;;;6.37;5.87;;;26.20;84.10;;;;;;5012518;28;20252;-71
2023/08/21 04:41:19;;;;;;;5.90;5.40;;;26.20;85.00;;;;;;5013405;28;20193;-71
2023/08/21 04:43:46;;;;;;;6.60;6.00;;;26.10;84.30;;;;;;5012794;28;20217;-71
2023/08/21 04:46:13;;;;;;;7.00;5.20;;;26.10;84.30;;;;;;5012919;28;20233;-71
2023/08/21 04:48:40;;;;;;;5.93;5.40;;;26.10;84.30;;;;;;5012370;28;20216;-71
2023/08/21 04:51:08;;;;;;;7.53;5.47;;;26.10;84.30;;;;;;4993231;28;20700;-71
2023/08/21 04:53:35;;;;;;;8.20;5.57;;;26.10;84.60;;;;;;4996833;28;20204;-71
2023/08/21 04:56:03;;;;;;;8.27;6.40;;;26.00;84.50;;;;;;5012614;28;20210;-71
2023/08/21 04:58:30;;;;;;;10.93;6.23;;;26.10;85.40;;;;;;5012066;28;20282;-73
2023/08/21 05:00:56;;;;;;;10.63;7.00;;;26.00;84.70;;;;;;5012167;28;20242;-71
2023/08/21 05:03:23;;;;;;;10.77;8.33;;;26.00;84.90;;;;;;5012477;28;20204;-71
2023/08/21 05:05:54;;;;;;;10.37;7.00;;;26.00;85.00;;;;;;5012029;28;20212;-71
2023/08/21 05:08:24;;;;;;;9.07;7.20;;;26.00;85.20;;;;;;5011900;28;20306;-71
2023/08/21 05:10:55;;;;;;;8.20;6.77;;;26.00;85.30;;;;;;5013652;28;20234;-71
2023/08/21 05:13:22;;;;;;;11.87;6.73;;;26.00;85.50;;;;;;5012895;28;20195;-71
2023/08/21 05:15:53;;;;;;;8.20;6.57;;;26.00;85.30;;;;;;5012479;28;20215;-72
2023/08/21 05:18:19;;;;;;;8.53;6.30;;;26.00;85.60;;;;;;5012165;28;20211;-71
2023/08/21 05:20:47;;;;;;;6.90;6.20;;;26.00;85.50;;;;;;5011986;28;20215;-71
2023/08/21 05:23:14;;;;;;;6.63;5.37;;;26.00;85.70;;;;;;5016542;28;20611;-71
2023/08/21 05:25:42;;;;;;;6.63;6.03;;;26.00;85.90;;;;;;5017209;28;20203;-71
2023/08/21 05:28:09;;;;;;;7.53;6.83;;;26.10;86.30;;;;;;5008088;28;20264;-72
2023/08/21 05:30:37;;;;;;;7.27;6.23;;;26.10;86.30;;;;;;4995114;28;20197;-72
2023/08/21 05:33:04;;;;;;;9.00;6.47;;;26.10;86.40;;;;;;5007786;28;20226;-72
2023/08/21 05:35:34;;;;;;;7.67;6.60;;;26.10;86.50;;;;;;5012184;28;20223;-71
2023/08/21 05:38:01;;;;;;;7.83;6.33;;;26.20;87.00;;;;;;5011935;28;20228;-71
2023/08/21 05:40:27;;;;;;;7.33;6.63;;;26.20;87.00;;;;;;5011801;28;20246;-71
2023/08/21 05:42:56;;;;;;;6.63;6.00;;;26.20;87.00;;;;;;5007131;28;20237;-71
2023/08/21 05:45:22;;;;;;;6.97;6.37;;;26.30;87.30;;;;;;5008882;28;20235;-71
2023/08/21 05:47:49;;;;;;;7.70;7.00;;;26.30;87.30;;;;;;5012990;28;20721;-71
2023/08/21 05:50:16;;;;;;;7.33;6.10;;;26.30;87.30;;;;;;5016946;28;20230;-71
2023/08/21 05:52:43;;;;;;;6.67;6.07;;;26.40;87.30;;;;;;5013299;28;20209;-72
2023/08/21 05:55:10;;;;;;;8.53;7.13;;;26.40;87.40;;;;;;5012665;28;20559;-72
2023/08/21 05:57:37;;;;;;;7.07;6.37;;;26.40;87.40;;;;;;5012281;28;20232;-72
2023/08/21 06:00:09;;;;;;;8.20;7.40;;;26.50;87.40;;;;;;5011551;28;20238;-71
2023/08/21 06:02:35;;;;;;;7.80;7.10;;;26.50;87.40;;;;;;5010618;28;20203;-71
2023/08/21 06:05:03;;;;;;;6.87;6.17;;;26.50;87.00;;;;;;5011560;28;20232;-71
2023/08/21 06:07:29;;;;;;;6.77;6.17;;;26.60;87.10;;;;;;5011308;28;20207;-71
2023/08/21 06:09:56;;;;;;;7.17;6.47;;;26.60;87.00;;;;;;5011223;28;20252;-72
2023/08/21 06:12:23;;;;;;;7.77;6.43;;;26.70;87.00;;;;;;5012969;28;20231;-72
2023/08/21 06:14:50;;;;;;;6.63;6.00;;;26.80;86.80;;;;;;5018697;28;20251;-71
2023/08/21 06:17:18;;;;;;;6.50;5.90;;;26.80;86.60;;;;;;5017880;28;20226;-71
2023/08/21 06:19:45;;;;;;;7.30;6.60;;;26.90;86.60;;;;;;5017866;28;20644;-71
2023/08/21 06:22:12;;;;;;;7.37;6.53;;;27.00;86.60;;;;;;5018410;28;20214;-72
2023/08/21 06:24:39;;;;;;;7.53;6.43;;;27.00;86.60;;;;;;5018424;28;20321;-72
2023/08/21 06:27:06;;;;;;;8.40;6.83;;;27.10;86.40;;;;;;5017930;28;20196;-71
2023/08/21 06:29:33;;;;;;;7.87;6.17;;;27.10;86.30;;;;;;5018381;28;20225;-71
2023/08/21 06:31:59;;;;;;;8.27;6.83;;;27.20;86.30;;;;;;5017517;28;20549;-71
2023/08/21 06:34:27;;;;;;;6.90;6.30;;;27.30;86.00;;;;;;5017887;28;20204;-71
2023/08/21 06:36:54;;;;;;;7.10;6.47;;;27.30;85.80;;;;;;5017961;28;20204;-71
2023/08/21 06:39:21;;;;;;;7.47;6.67;;;27.40;85.70;;;;;;5018224;28;20233;-71
2023/08/21 06:41:48;;;;;;;7.90;7.17;;;27.50;85.50;;;;;;5018050;28;20370;-72
2023/08/21 06:44:15;;;;;;;6.93;6.33;;;27.50;85.40;;;;;;5018095;28;20564;-71
2023/08/21 06:46:42;;;;;;;7.37;6.17;;;27.60;85.10;;;;;;5017664;28;20204;-71
2023/08/21 06:49:08;;;;;;;7.90;7.10;;;27.60;85.10;;;;;;5017992;28;20226;-71
2023/08/21 06:51:37;;;;;;;7.50;6.80;;;27.70;85.00;;;;;;5017394;28;20217;-71
2023/08/21 06:54:04;;;;;;;7.73;6.70;;;27.70;85.00;;;;;;5017959;28;20209;-71
2023/08/21 06:56:30;;;;;;;9.00;7.90;;;27.70;84.70;;;;;;5017688;28;20205;-71
2023/08/21 06:58:57;;;;;;;7.87;7.13;;;27.80;84.70;;;;;;5017999;28;20312;-72
2023/08/21 07:01:24;;;;;;;7.87;7.10;;;27.90;84.20;;;;;;5015140;28;20232;-71
2023/08/21 07:03:51;;;;;;;8.63;7.77;;;28.00;83.90;;;;;;5017711;28;20310;-71
2023/08/21 07:06:18;;;;;;;7.70;7.00;;;28.00;83.60;;;;;;5017274;28;20572;-71
2023/08/21 07:08:46;;;;;;;9.33;8.37;;;28.10;83.60;;;;;;5016888;28;20233;-72
2023/08/21 07:11:13;;;;;;;8.10;7.30;;;28.10;83.70;;;;;;5017359;28;20216;-72
2023/08/21 07:13:40;;;;;;;8.90;8.10;;;28.20;83.50;;;;;;5016888;28;20265;-71
2023/08/21 07:16:08;;;;;;;8.20;7.40;;;28.20;83.30;;;;;;5016953;28;20310;-71
2023/08/21 07:18:36;;;;;;;8.10;7.30;;;28.30;83.90;;;;;;5016134;28;20226;-71
2023/08/21 07:21:04;;;;;;;7.33;6.63;;;28.30;82.90;;;;;;5017214;28;20313;-71
2023/08/21 07:23:31;;;;;;;9.03;6.97;;;28.40;82.60;;;;;;5016860;28;20211;-71
2023/08/21 07:25:59;;;;;;;8.03;7.03;;;28.50;82.30;;;;;;5014335;28;20233;-71
2023/08/21 07:28:27;;;;;;;7.33;6.67;;;28.50;82.10;;;;;;5014155;28;20290;-71
2023/08/21 07:30:57;;;;;;;8.50;7.60;;;28.60;82.20;;;;;;5013984;28;20632;-71
2023/08/21 07:33:23;;;;;;;8.43;7.63;;;28.70;82.00;;;;;;5013960;28;20260;-71
2023/08/21 07:35:58;;;;;;;7.53;6.80;;;28.80;82.00;;;;;;5014064;28;20218;-71
2023/08/21 07:38:26;;;;;;;8.43;7.23;;;28.80;81.80;;;;;;5013819;28;20554;-71
2023/08/21 07:41:05;;;;;;;9.13;7.60;;;28.90;81.40;;;;;;5013527;28;20205;-70
2023/08/21 07:43:32;;;;;;;7.67;6.90;;;28.90;80.90;;;;;;5013880;28;20190;-71
2023/08/21 07:45:59;;;;;;;7.97;6.77;;;29.00;80.80;;;;;;5013131;28;20239;-72
2023/08/21 07:48:25;;;;;;;7.43;6.77;;;29.10;80.70;;;;;;5013598;28;20207;-71
2023/08/21 07:50:53;;;;;;;7.83;7.23;;;29.20;80.60;;;;;;5013356;28;20211;-72
2023/08/21 07:53:20;;;;;;;7.60;6.90;;;29.20;80.40;;;;;;5013307;28;20269;-71
2023/08/21 07:55:47;;;;;;;7.60;6.80;;;29.30;80.30;;;;;;5013464;28;20548;-71
2023/08/21 07:58:15;;;;;;;7.50;6.77;;;29.40;80.10;;;;;;5012889;28;20234;-71
2023/08/21 08:00:42;;;;;;;7.73;7.00;;;29.40;79.40;;;;;;5012969;28;20207;-71
2023/08/21 08:03:10;;;;;;;8.00;7.17;;;29.50;79.80;;;;;;5013235;28;20216;-71
2023/08/21 08:05:37;;;;;;;7.00;6.30;;;29.60;79.50;;;;;;5013295;28;20230;-72
2023/08/21 08:08:04;;;;;;;7.00;6.30;;;29.70;79.60;;;;;;5012652;28;20239;-72
2023/08/21 08:10:31;;;;;;;7.73;6.50;;;29.70;79.50;;;;;;5012989;28;20233;-71
2023/08/21 08:12:58;;;;;;;6.57;5.97;;;29.80;79.10;;;;;;5013106;28;20238;-72
2023/08/21 08:15:26;;;;;;;7.53;6.80;;;29.90;78.60;;;;;;5013058;28;20234;-72
2023/08/21 08:17:55;;;;;;;7.57;6.40;;;30.00;78.20;;;;;;5013033;28;20242;-71
2023/08/21 08:20:22;;;;;;;8.20;7.00;;;30.00;78.10;;;;;;5013218;28;20227;-71
2023/08/21 08:22:49;;;;;;;7.03;6.43;;;30.10;78.60;;;;;;5012858;28;20213;-71
2023/08/21 08:25:16;;;;;;;7.37;6.67;;;30.10;77.20;;;;;;5012357;28;20233;-72
2023/08/21 08:27:44;;;;;;;7.63;6.90;;;30.20;77.20;;;;;;5012358;28;20238;-71
2023/08/21 08:30:11;;;;;;;7.47;6.77;;;30.20;77.30;;;;;;5012689;28;20227;-72
2023/08/21 08:32:41;;;;;;;7.27;6.03;;;30.30;77.70;;;;;;5012705;28;20403;-72
2023/08/21 08:35:08;;;;;;;6.83;6.23;;;30.40;78.60;;;;;;5012293;28;20309;-72
2023/08/21 08:37:35;;;;;;;7.10;6.40;;;30.50;77.60;;;;;;5012062;28;20230;-71
2023/08/21 08:40:02;;;;;;;8.90;6.13;;;30.60;77.00;;;;;;5012611;28;20226;-72
2023/08/21 08:42:29;;;;;;;6.13;5.53;;;30.60;77.00;;;;;;5012283;28;20265;-72
2023/08/21 08:44:56;;;;;;;6.07;5.57;;;30.70;76.60;;;;;;5012261;28;20298;-72
2023/08/21 08:47:24;;;;;;;6.43;5.83;;;30.80;75.30;;;;;;5012093;28;20763;-72
2023/08/21 08:49:55;;;;;;;6.67;6.17;;;30.90;74.70;;;;;;5012046;28;20322;-71
2023/08/21 08:52:23;;;;;;;6.70;5.60;;;31.00;74.00;;;;;;5012693;28;20583;-70
2023/08/21 08:54:50;;;;;;;6.43;5.83;;;31.10;73.80;;;;;;5010918;28;20207;-71
2023/08/21 08:57:17;;;;;;;6.43;5.33;;;31.20;73.00;;;;;;5011989;28;20211;-71
2023/08/21 08:59:44;;;;;;;6.70;6.07;;;31.30;72.70;;;;;;5011944;28;20235;-71
2023/08/21 09:02:11;;;;;;;6.50;5.87;;;31.30;72.80;;;;;;5011981;28;20321;-71
2023/08/21 09:04:38;;;;;;;6.40;5.80;;;31.50;73.40;;;;;;5011756;28;20297;-70
2023/08/21 09:07:10;;;;;;;7.30;6.57;;;31.60;72.50;;;;;;5012776;28;20568;-70
2023/08/21 09:09:41;;;;;;;6.40;5.90;;;31.70;71.60;;;;;;5012486;28;20242;-70
2023/08/21 09:12:12;;;;;;;6.47;5.97;;;31.80;72.20;;;;;;5012683;28;20444;-71
2023/08/21 09:14:40;;;;;;;6.33;5.50;;;31.80;70.90;;;;;;5012865;28;20240;-71
2023/08/21 09:17:08;;;;;;;6.80;6.00;;;31.90;71.30;;;;;;5012376;28;20575;-72
2023/08/21 09:19:35;;;;;;;8.13;6.90;;;32.00;70.80;;;;;;5012603;28;20663;-71
2023/08/21 09:22:10;;;;;;;6.70;6.10;;;32.00;70.50;;;;;;5012768;28;20233;-71
2023/08/21 09:24:37;;;;;;;8.47;6.40;;;32.10;70.40;;;;;;5012455;28;20210;-72
2023/08/21 09:27:05;;;;;;;7.37;6.13;;;32.20;70.20;;;;;;5012491;28;20216;-71
2023/08/21 09:29:40;;;;;;;7.00;6.40;;;32.40;71.20;;;;;;5012533;28;20298;-72
2023/08/21 09:32:07;;;;;;;6.87;6.27;;;32.40;70.70;;;;;;5012657;28;20239;-71
2023/08/21 09:34:37;;;;;;;7.03;6.33;;;32.60;70.50;;;;;;5012524;28;20224;-71
2023/08/21 09:37:07;;;;;;;6.40;5.80;;;32.70;69.90;;;;;;5012035;28;20234;-71
2023/08/21 09:39:36;;;;;;;7.10;6.50;;;32.80;70.30;;;;;;5012260;28;20273;-72
2023/08/21 09:42:06;;;;;;;7.20;6.53;;;32.90;68.50;;;;;;5012118;28;20649;-71
2023/08/21 09:44:45;;;;;;;6.53;5.93;;;33.00;68.60;;;;;;4993996;28;20293;-71
2023/08/21 09:47:12;;;;;;;6.93;6.33;;;33.00;67.90;;;;;;4991429;28;20245;-72
2023/08/21 09:49:40;;;;;;;6.37;5.77;;;33.10;68.30;;;;;;4992604;28;20235;-72
2023/08/21 09:52:10;;;;;;;8.73;6.10;;;33.20;68.20;;;;;;4992332;28;20694;-72
2023/08/21 09:54:38;;;;;;;6.60;6.00;;;33.40;68.00;;;;;;4992177;28;20737;-72
2023/08/21 09:57:06;;;;;;;7.40;6.10;;;33.50;66.90;;;;;;4992206;28;20208;-72
2023/08/21 09:59:33;;;;;;;6.83;6.13;;;33.60;67.50;;;;;;4992512;28;20318;-72
2023/08/21 10:02:01;;;;;;;6.90;6.30;;;33.70;67.60;;;;;;4992548;28;20298;-72
2023/08/21 10:04:30;;;;;;;6.07;5.47;;;33.80;66.00;;;;;;4992546;28;20583;-71
2023/08/21 10:06:58;;;;;;;6.63;5.90;;;33.90;65.80;;;;;;4992095;28;20572;-71
2023/08/21 10:09:28;;;;;;;5.90;5.37;;;34.10;66.00;;;;;;4991882;28;20226;-71
2023/08/21 10:11:56;;;;;;;6.83;6.00;;;34.10;64.40;;;;;;4992234;28;20306;-72
2023/08/21 10:14:24;;;;;;;5.97;5.47;;;34.30;63.60;;;;;;4992598;28;20232;-72
2023/08/21 10:16:53;;;;;;;6.43;5.70;;;34.40;63.00;;;;;;4991820;28;20205;-71
2023/08/21 10:19:20;;;;;;;6.33;5.80;;;34.50;63.20;;;;;;4992235;28;20234;-72
2023/08/21 10:21:49;;;;;;;6.40;5.80;;;34.70;63.50;;;;;;4992313;28;20672;-72
2023/08/21 10:24:28;;;;;;;6.20;5.60;;;34.80;62.70;;;;;;4991997;28;20231;-72
2023/08/21 10:26:59;;;;;;;5.57;5.00;;;34.80;61.00;;;;;;4992289;28;20545;-71
2023/08/21 10:29:26;;;;;;;5.47;4.90;;;35.00;59.90;;;;;;4992444;28;20274;-72
2023/08/21 10:32:01;;;;;;;7.00;5.50;;;35.00;59.30;;;;;;4992095;28;20472;-71
2023/08/21 10:34:34;;;;;;;5.53;4.93;;;35.10;59.60;;;;;;4992516;28;20199;-72
2023/08/21 10:37:09;;;;;;;5.10;4.70;;;35.10;59.60;;;;;;4992202;28;20220;-71
2023/08/21 10:39:37;;;;;;;5.40;4.90;;;35.20;59.40;;;;;;4991997;28;20216;-71
2023/08/21 10:42:08;;;;;;;5.23;4.73;;;35.40;59.70;;;;;;4991834;28;20328;-71
2023/08/21 10:44:36;;;;;;;5.93;4.97;;;35.50;58.90;;;;;;5011163;28;20565;-71
2023/08/21 10:47:16;;;;;;;5.87;5.27;;;35.60;58.90;;;;;;5011308;28;20239;-71
2023/08/21 10:49:44;;;;;;;5.80;5.23;;;35.70;57.70;;;;;;5011710;28;20277;-71
2023/08/21 10:52:11;;;;;;;5.43;5.03;;;35.70;58.60;;;;;;5011542;28;20301;-71
2023/08/21 10:54:46;;;;;;;6.27;5.33;;;35.70;57.20;;;;;;5011533;28;20268;-71
2023/08/21 10:57:15;;;;;;;5.83;5.23;;;35.80;57.30;;;;;;5011547;28;20209;-72
2023/08/21 10:59:51;;;;;;;6.83;4.40;;;36.00;58.30;;;;;;5013234;28;20243;-72
2023/08/21 11:02:18;;;;;;;5.27;4.77;;;35.90;55.60;;;;;;5015396;28;20194;-72
2023/08/21 11:04:45;;;;;;;6.43;4.53;;;36.00;56.30;;;;;;5015178;28;20638;-72
2023/08/21 11:07:12;;;;;;;4.83;4.43;;;36.10;55.70;;;;;;5014898;28;20661;-72
2023/08/21 11:09:40;;;;;;;6.10;4.80;;;36.20;55.90;;;;;;5014650;28;20700;-71
2023/08/21 11:12:08;;;;;;;4.40;3.97;;;36.30;55.30;;;;;;5014930;28;20207;-71
2023/08/21 11:14:36;;;;;;;5.30;4.50;;;36.40;54.70;;;;;;5014972;28;20221;-72
2023/08/21 11:17:05;;;;;;;6.13;4.53;;;36.50;53.70;;;;;;5014958;28;20230;-72
2023/08/21 11:19:32;;;;;;;4.63;4.17;;;36.60;54.00;;;;;;5014946;28;20210;-72
2023/08/21 11:22:03;;;;;;;4.93;4.43;;;36.60;54.00;;;;;;5014520;28;20711;-71
2023/08/21 11:24:45;;;;;;;4.40;3.83;;;36.70;53.70;;;;;;5014965;28;20222;-71
2023/08/21 11:27:14;;;;;;;4.17;3.77;;;36.80;52.70;;;;;;5014860;28;20198;-72
2023/08/21 11:29:43;;;;;;;4.70;4.03;;;36.80;51.80;;;;;;5014783;28;20566;-71
2023/08/21 11:32:11;;;;;;;4.97;3.97;;;36.60;51.30;;;;;;5014930;28;20225;-72
2023/08/21 11:34:38;;;;;;;5.10;3.93;;;36.50;51.50;;;;;;5014838;28;20238;-71
2023/08/21 11:37:06;;;;;;;4.60;4.20;;;36.60;52.10;;;;;;5014080;28;20308;-72
2023/08/21 11:39:45;;;;;;;4.77;4.00;;;36.60;51.30;;;;;;5014355;28;20210;-71
2023/08/21 11:42:13;;;;;;;5.87;4.20;;;36.60;50.40;;;;;;5014766;28;20295;-71
2023/08/21 11:44:47;;;;;;;5.07;4.40;;;36.70;52.00;;;;;;4995345;28;20612;-71
2023/08/21 11:47:14;;;;;;;4.47;4.07;;;36.80;52.70;;;;;;4994776;28;20193;-71
2023/08/21 11:49:43;;;;;;;5.40;4.60;;;36.90;51.80;;;;;;4994753;28;20222;-71
2023/08/21 11:52:10;;;;;;;4.50;4.10;;;37.10;52.20;;;;;;4994762;28;20639;-71
2023/08/21 11:54:40;;;;;;;6.10;4.63;;;37.20;52.10;;;;;;4994929;28;20267;-71
2023/08/21 11:57:08;;;;;;;4.80;4.30;;;37.30;51.60;;;;;;4994610;28;20237;-71
2023/08/21 11:59:35;;;;;;;5.07;4.57;;;37.40;51.70;;;;;;4994403;28;20212;-71
2023/08/21 12:02:10;;;;;;;5.67;4.20;;;37.40;50.90;;;;;;4994644;28;20207;-71
2023/08/21 12:04:37;;;;;;;5.30;4.80;;;37.50;51.00;;;;;;4994785;28;20231;-72
2023/08/21 12:07:04;;;;;;;4.90;4.40;;;37.60;50.90;;;;;;4993983;28;20709;-72
2023/08/21 12:09:31;;;;;;;5.07;4.43;;;37.60;50.80;;;;;;4994118;28;20243;-71
2023/08/21 12:11:58;;;;;;;5.30;4.80;;;37.80;50.80;;;;;;4993510;28;20205;-71
2023/08/21 12:14:25;;;;;;;5.90;4.73;;;37.80;50.80;;;;;;4994489;28;20644;-71
2023/08/21 12:16:52;;;;;;;5.40;4.77;;;38.00;49.80;;;;;;4993956;28;20190;-71
2023/08/21 12:19:21;;;;;;;5.50;4.70;;;38.10;49.90;;;;;;4994715;28;20210;-72
2023/08/21 12:21:48;;;;;;;7.40;5.07;;;38.20;49.80;;;;;;4994554;28;20734;-71
2023/08/21 12:24:15;;;;;;;5.10;4.60;;;38.30;50.10;;;;;;4994592;28;20223;-71
2023/08/21 12:26:41;;;;;;;5.53;4.73;;;38.40;49.80;;;;;;4993886;28;20238;-71
2023/08/21 12:29:08;;;;;;;4.87;4.37;;;38.50;49.90;;;;;;4994343;28;20210;-72
2023/08/21 12:31:36;;;;;;;5.60;4.27;;;38.60;50.00;;;;;;4994067;28;20226;-71
2023/08/21 12:34:03;;;;;;;5.37;4.87;;;38.80;49.90;;;;;;4994179;28;20544;-72
2023/08/21 12:36:31;;;;;;;4.83;4.43;;;38.90;49.50;;;;;;4993843;28;20627;-72
2023/08/21 12:38:58;;;;;;;4.87;4.30;;;38.90;49.10;;;;;;4993692;28;20244;-71
2023/08/21 12:41:25;;;;;;;5.33;4.83;;;39.00;48.70;;;;;;4993877;28;20235;-72
2023/08/21 12:43:52;;;;;;;6.60;5.03;;;39.00;47.40;;;;;;5006411;28;20230;-72
2023/08/21 12:46:18;;;;;;;4.90;4.40;;;38.90;47.70;;;;;;5013566;28;20484;-71
2023/08/21 12:48:45;;;;;;;6.03;5.07;;;38.90;48.60;;;;;;5012906;28;20316;-71